Terminal Aerodrome Forecast
Issued by NWS

Home | Current Version | Previous Version | Text Only | Print | Product List | Glossary On
Versions: 1 2 3 4 5 6 7 8 9 10 11 12 13 14
000
FTUS45 KFGZ 250500
TAFGCN
TAF
KGCN 250520Z 2506/2606 22004KT P6SM FEW250
     FM251500 21014G20KT P6SM SCT250
     FM252000 22022G32KT P6SM SCT250
     FM260300 22018KT P6SM BKN200=

USA.gov is the U.S. government's official web portal to all federal, state and local government web resources and services.